OIIS  Semnan Airport

Add Bookmark

Semnan, Iran

Status
Operational
Latitude Longitude
35° 35' 27" N 53° 29' 42" E
35.591099 53.495098
Local (DST + 5) UTC (GMT + 4)
Nov 1, 2014 09:25 Nov 1, 2014 05:55
Sunrise-Sunset Local UTC
Begin Civil Twilight 05:50 02:20
Sunrise 06:16 02:46
Sunset 05:02 13:32
End Civil Twilight 05:28 13:58

Current Weather

METAR Observed VFR
OIIS 010500Z 12002KT 9999 FEW030 OVC100 13/M04 Q1016 Sat, Nov 1, 2014 @ 05:00 UTC
(55 Minutes ago)
Visual Flight Rules
Wind Visibility Clouds Conditions
120° at 2 knots (4 kph) 10 km or more
  • Few at 3,000' AGL
  • Overcast at 10,000' AGL
  • No significant weather
Temperatures Readings Precipitation
Current Temp 13°C (55°F)
Dewpoint -4°C (25°F)
Humidity 31%
Altimeter 30"Hg
Sea Level Pressure 1016mb
Field Elevation 3658.14'
None Recorded

Additional weather within a 185.2km radius of OIIS

Map ICAO Location
OINZ 119.3km N (347°)
OINB 146.5km N (329°)
OING 167.4km N (029°)

24 Hour Weather History

Loading
-

24 Hour Weather Graphs

Loading
-

CheckWX.com is intended as a tool to help pilots better visualize weather data. It is not intended as a substitute for an official weather briefing obtained from a Flight Service Station. CheckWX.com does not meet the FAA requirements for an official pre-flight weather briefing. Therefore, it's important that pilots still call and obtain an official FSS pre-flight weather briefing.